Time;durP1;ratioP1;P1;durP2;ratioP2;P2;SDS_P1;SDS_P2;PMS_P1;PMS_P2;Temp;Humidity;BMP_temperature;BMP_pressure;BME280_temperature;BME280_humidity;BME280_pressure;Samples;Min_cycle;Max_cycle;Signal;HPM_P1;HPM_P2
2021/10/25 00:00:29;;;;;;;157.83;148.90;;;;;;;;;;4994493;28;20478;-66
2021/10/25 00:02:58;;;;;;;163.30;153.97;;;;;;;;;;5008446;28;20488;-65
2021/10/25 00:05:25;;;;;;;157.47;148.70;;;;;;;;;;4998508;28;20459;-66
2021/10/25 00:07:53;;;;;;;159.37;150.20;;;;;;;;;;5002916;28;20451;-66
2021/10/25 00:10:21;;;;;;;155.70;146.57;;;;;;;;;;4996493;28;20520;-66
2021/10/25 00:12:48;;;;;;;159.07;149.97;;;;;;;;;;5008989;28;20443;-66
2021/10/25 00:15:15;;;;;;;160.00;150.90;;;;;;;;;;5007567;28;21049;-66
2021/10/25 00:17:42;;;;;;;157.33;148.33;;;;;;;;;;5009480;28;20558;-66
2021/10/25 00:20:11;;;;;;;148.97;140.37;;;;;;;;;;4993805;28;20474;-66
2021/10/25 00:22:38;;;;;;;149.60;141.10;;;;;;;;;;4996275;28;21013;-65
2021/10/25 00:25:06;;;;;;;146.63;138.40;;;;;;;;;;4993119;28;20953;-66
2021/10/25 00:27:33;;;;;;;151.30;142.50;;;;;;;;;;5007544;28;20462;-66
2021/10/25 00:30:00;;;;;;;159.10;150.13;;;;;;;;;;4993620;28;20451;-66
2021/10/25 00:32:27;;;;;;;153.27;144.77;;;;;;;;;;5009113;28;20486;-65
2021/10/25 00:34:54;;;;;;;152.30;143.50;;;;;;;;;;4996987;28;20463;-66
2021/10/25 00:37:23;;;;;;;155.87;147.07;;;;;;;;;;4995165;28;20455;-66
2021/10/25 00:39:50;;;;;;;152.63;143.80;;;;;;;;;;4993339;28;20964;-66
2021/10/25 00:42:17;;;;;;;144.67;136.57;;;;;;;;;;4996213;28;20486;-66
2021/10/25 00:44:45;;;;;;;142.57;134.37;;;;;;;;;;4992870;28;20500;-66
2021/10/25 00:47:12;;;;;;;141.27;133.27;;;;;;;;;;5007690;28;20450;-66
2021/10/25 00:49:39;;;;;;;145.70;137.47;;;;;;;;;;5003153;28;20962;-66
2021/10/25 00:52:07;;;;;;;144.47;136.07;;;;;;;;;;4993394;28;20467;-66
2021/10/25 00:54:36;;;;;;;151.60;142.80;;;;;;;;;;4992759;28;20458;-66
2021/10/25 00:57:04;;;;;;;146.80;138.63;;;;;;;;;;4994287;28;20451;-66
2021/10/25 00:59:31;;;;;;;145.70;137.43;;;;;;;;;;4993347;28;20465;-66
2021/10/25 01:01:59;;;;;;;143.80;135.90;;;;;;;;;;4993740;28;20478;-66
2021/10/25 01:04:26;;;;;;;144.60;136.20;;;;;;;;;;4993051;28;20458;-66
2021/10/25 01:06:53;;;;;;;144.70;136.40;;;;;;;;;;4996244;28;20838;-65
2021/10/25 01:09:20;;;;;;;136.80;129.00;;;;;;;;;;5012291;28;20453;-66
2021/10/25 01:11:49;;;;;;;145.23;136.87;;;;;;;;;;4992943;28;20482;-66
2021/10/25 01:14:17;;;;;;;148.57;139.97;;;;;;;;;;4992378;28;20505;-65
2021/10/25 01:16:44;;;;;;;145.20;137.00;;;;;;;;;;4993120;28;20454;-65
2021/10/25 01:19:11;;;;;;;148.53;140.20;;;;;;;;;;4992772;28;20455;-66
2021/10/25 01:21:39;;;;;;;149.77;141.43;;;;;;;;;;4997406;28;20475;-66
2021/10/25 01:24:06;;;;;;;153.13;144.50;;;;;;;;;;4992217;28;21158;-66
2021/10/25 01:26:33;;;;;;;143.60;135.47;;;;;;;;;;5000338;28;20454;-67
2021/10/25 01:29:00;;;;;;;145.13;136.97;;;;;;;;;;4998461;28;20957;-66
2021/10/25 01:31:27;;;;;;;145.00;136.80;;;;;;;;;;4993794;28;20474;-66
2021/10/25 01:33:55;;;;;;;152.30;143.67;;;;;;;;;;4994424;28;20447;-66
2021/10/25 01:36:22;;;;;;;152.03;143.40;;;;;;;;;;4992165;28;20450;-66
2021/10/25 01:38:51;;;;;;;153.63;145.23;;;;;;;;;;4992425;28;20466;-66
2021/10/25 01:41:18;;;;;;;156.63;147.60;;;;;;;;;;4992100;28;20483;-66
2021/10/25 01:43:46;;;;;;;154.87;145.93;;;;;;;;;;4991870;28;21080;-65
2021/10/25 01:46:13;;;;;;;151.93;143.53;;;;;;;;;;4998697;28;20461;-66
2021/10/25 01:48:40;;;;;;;149.97;141.17;;;;;;;;;;4992593;28;20462;-66
2021/10/25 01:51:07;;;;;;;152.90;144.50;;;;;;;;;;5003660;28;20474;-66
2021/10/25 01:53:37;;;;;;;142.17;133.83;;;;;;;;;;5003207;28;20991;-66
2021/10/25 01:56:06;;;;;;;142.60;134.50;;;;;;;;;;5003397;28;20450;-66
2021/10/25 01:58:33;;;;;;;144.67;136.70;;;;;;;;;;4992811;28;20454;-66
2021/10/25 02:01:00;;;;;;;143.30;135.20;;;;;;;;;;4991826;28;20470;-66
2021/10/25 02:03:28;;;;;;;143.53;135.63;;;;;;;;;;4999227;28;20477;-66
2021/10/25 02:05:56;;;;;;;141.07;133.13;;;;;;;;;;4998803;28;20451;-65
2021/10/25 02:08:23;;;;;;;136.73;129.13;;;;;;;;;;4998091;28;20457;-66
2021/10/25 02:10:51;;;;;;;136.73;129.13;;;;;;;;;;4992067;28;20478;-66
2021/10/25 02:13:19;;;;;;;134.03;126.60;;;;;;;;;;4991963;28;20549;-65
2021/10/25 02:15:47;;;;;;;135.40;127.90;;;;;;;;;;4988866;28;20464;-65
2021/10/25 02:18:14;;;;;;;131.93;124.27;;;;;;;;;;4979778;28;20454;-66
2021/10/25 02:20:41;;;;;;;131.30;123.80;;;;;;;;;;4992598;28;20480;-65
2021/10/25 02:23:09;;;;;;;137.67;130.10;;;;;;;;;;4991408;28;20478;-66
2021/10/25 02:25:37;;;;;;;135.93;128.17;;;;;;;;;;4992345;28;20455;-65
2021/10/25 02:28:05;;;;;;;132.93;125.30;;;;;;;;;;5002425;28;20457;-65
2021/10/25 02:30:34;;;;;;;136.33;128.40;;;;;;;;;;4992096;28;20482;-65
2021/10/25 02:33:01;;;;;;;131.83;124.13;;;;;;;;;;4992427;28;20446;-65
2021/10/25 02:35:29;;;;;;;124.70;117.67;;;;;;;;;;4991430;28;20477;-65
2021/10/25 02:37:57;;;;;;;122.90;115.60;;;;;;;;;;4992106;28;20447;-65
2021/10/25 02:40:25;;;;;;;124.47;117.27;;;;;;;;;;4991529;28;20489;-66
2021/10/25 02:42:52;;;;;;;125.60;118.40;;;;;;;;;;4991821;28;20474;-65
2021/10/25 02:45:19;;;;;;;127.30;119.87;;;;;;;;;;4986573;28;20446;-65
2021/10/25 02:47:48;;;;;;;129.10;121.67;;;;;;;;;;4991564;28;20545;-65
2021/10/25 02:50:16;;;;;;;122.60;115.50;;;;;;;;;;4973699;28;21001;-65
2021/10/25 02:52:43;;;;;;;135.00;127.37;;;;;;;;;;4987498;28;20462;-65
2021/10/25 02:55:10;;;;;;;126.93;119.30;;;;;;;;;;5008388;28;20826;-65
2021/10/25 02:57:38;;;;;;;129.77;122.47;;;;;;;;;;5011373;28;20445;-65
2021/10/25 03:00:06;;;;;;;125.47;118.10;;;;;;;;;;5003953;28;20454;-65
2021/10/25 03:02:33;;;;;;;132.00;124.03;;;;;;;;;;4990784;28;20464;-65
2021/10/25 03:05:01;;;;;;;119.30;112.37;;;;;;;;;;5009126;28;20460;-65
2021/10/25 03:07:28;;;;;;;123.40;116.20;;;;;;;;;;4995647;28;20462;-65
2021/10/25 03:09:55;;;;;;;122.47;114.80;;;;;;;;;;4995003;28;20458;-65
2021/10/25 03:12:23;;;;;;;122.23;115.03;;;;;;;;;;4999410;28;20442;-65
2021/10/25 03:14:50;;;;;;;123.80;116.27;;;;;;;;;;5008581;28;21016;-66
2021/10/25 03:17:17;;;;;;;121.40;114.30;;;;;;;;;;4999011;28;20452;-66
2021/10/25 03:19:45;;;;;;;121.53;114.37;;;;;;;;;;5004361;28;20505;-66
2021/10/25 03:22:13;;;;;;;117.17;110.37;;;;;;;;;;4994317;28;21001;-65
2021/10/25 03:24:41;;;;;;;122.30;115.00;;;;;;;;;;4994223;28;20536;-66
2021/10/25 03:27:08;;;;;;;123.30;116.17;;;;;;;;;;4993475;28;20458;-66
2021/10/25 03:29:35;;;;;;;116.50;109.60;;;;;;;;;;4981172;28;20890;-66
2021/10/25 03:32:02;;;;;;;117.87;110.87;;;;;;;;;;4995020;28;20474;-66
2021/10/25 03:34:29;;;;;;;117.33;109.73;;;;;;;;;;4993632;28;20949;-66
2021/10/25 03:36:57;;;;;;;111.63;104.73;;;;;;;;;;4994617;28;20462;-66
2021/10/25 03:39:28;;;;;;;112.77;105.57;;;;;;;;;;4997203;28;20454;-66
2021/10/25 03:41:57;;;;;;;114.80;107.70;;;;;;;;;;4994161;28;20489;-67
2021/10/25 03:44:26;;;;;;;111.60;104.80;;;;;;;;;;4994401;28;20517;-67
2021/10/25 03:46:57;;;;;;;116.57;109.50;;;;;;;;;;4994456;28;20450;-67
2021/10/25 03:49:31;;;;;;;114.53;107.33;;;;;;;;;;5011177;28;20962;-66
2021/10/25 03:52:00;;;;;;;119.53;112.40;;;;;;;;;;5013610;28;20850;-66
2021/10/25 03:54:35;;;;;;;116.83;109.73;;;;;;;;;;5011736;28;20475;-67
2021/10/25 03:57:27;;;;;;;111.20;104.17;;;;;;;;;;4991844;28;20478;-66
2021/10/25 04:00:10;;;;;;;118.30;111.07;;;;;;;;;;4981090;28;20463;-66
2021/10/25 04:02:57;;;;;;;115.13;108.00;;;;;;;;;;4995513;28;20749;-66
2021/10/25 04:27:27;;;;;;;119.43;112.00;;;;;;;;;;5005668;28;20483;-66
2021/10/25 04:30:01;;;;;;;109.67;102.63;;;;;;;;;;4993911;28;20442;-67
2021/10/25 04:32:28;;;;;;;114.63;107.23;;;;;;;;;;4993558;28;21003;-67
2021/10/25 04:34:56;;;;;;;113.07;105.87;;;;;;;;;;4993176;28;20450;-67
2021/10/25 04:37:23;;;;;;;111.37;103.77;;;;;;;;;;5006034;28;20454;-67
2021/10/25 04:39:50;;;;;;;111.00;103.73;;;;;;;;;;5006332;28;20457;-67
2021/10/25 04:42:17;;;;;;;115.40;108.07;;;;;;;;;;5004481;28;20823;-67
2021/10/25 04:44:46;;;;;;;115.17;107.63;;;;;;;;;;5012916;28;20555;-67
2021/10/25 04:47:13;;;;;;;110.27;103.00;;;;;;;;;;5008329;28;20453;-67
2021/10/25 04:49:41;;;;;;;113.90;106.80;;;;;;;;;;4998064;28;20449;-67
2021/10/25 04:52:09;;;;;;;117.87;110.53;;;;;;;;;;4994032;28;20474;-67
2021/10/25 04:54:36;;;;;;;116.43;109.10;;;;;;;;;;4998447;28;20453;-67
2021/10/25 04:57:03;;;;;;;121.47;113.90;;;;;;;;;;5005065;28;20460;-67
2021/10/25 04:59:30;;;;;;;89.82;83.22;;;;;;;;;;4991983;28;20444;-68
2021/10/25 05:01:59;;;;;;;126.93;118.90;;;;;;;;;;5000802;28;20725;-70
2021/10/25 05:04:27;;;;;;;118.03;110.33;;;;;;;;;;5012455;28;20478;-68
2021/10/25 05:06:55;;;;;;;116.63;108.87;;;;;;;;;;5000774;28;20958;-68
2021/10/25 05:09:22;;;;;;;114.13;106.93;;;;;;;;;;5007612;28;20458;-68
2021/10/25 05:11:49;;;;;;;116.00;108.30;;;;;;;;;;4995605;28;20565;-68
2021/10/25 05:14:16;;;;;;;185.30;173.57;;;;;;;;;;4992608;28;20828;-68
2021/10/25 05:16:44;;;;;;;196.17;184.17;;;;;;;;;;5003125;28;20453;-68
2021/10/25 05:19:12;;;;;;;111.63;104.33;;;;;;;;;;5012187;28;20461;-68
2021/10/25 05:21:39;;;;;;;110.33;103.10;;;;;;;;;;5003911;28;21004;-68
2021/10/25 05:24:07;;;;;;;117.50;109.90;;;;;;;;;;5006426;28;20804;-68
2021/10/25 05:26:34;;;;;;;122.40;114.50;;;;;;;;;;5005417;28;20469;-68
2021/10/25 05:29:01;;;;;;;116.00;108.47;;;;;;;;;;5012297;28;20449;-67
2021/10/25 05:31:28;;;;;;;114.47;107.03;;;;;;;;;;4999844;28;20825;-68
2021/10/25 05:33:55;;;;;;;126.97;119.67;;;;;;;;;;4992326;28;20446;-68
2021/10/25 05:36:24;;;;;;;112.40;104.83;;;;;;;;;;4991296;28;20455;-67
2021/10/25 05:38:51;;;;;;;116.00;108.20;;;;;;;;;;4992265;28;20457;-68
2021/10/25 05:41:19;;;;;;;108.67;101.40;;;;;;;;;;4991662;28;20485;-68
2021/10/25 05:43:46;;;;;;;114.20;106.50;;;;;;;;;;5025276;22;20541;-64
2021/10/25 05:46:13;;;;;;;110.03;102.63;;;;;;;;;;5003454;28;20465;-65
2021/10/25 05:48:41;;;;;;;78.83;72.70;;;;;;;;;;5012168;28;20445;-72
2021/10/25 05:51:08;;;;;;;70.10;65.47;;;;;;;;;;5010180;28;20971;-67
2021/10/25 05:53:37;;;;;;;68.53;63.90;;;;;;;;;;5012305;28;20441;-65
2021/10/25 05:56:04;;;;;;;68.47;63.27;;;;;;;;;;5010879;28;20452;-65
2021/10/25 05:58:31;;;;;;;93.70;87.20;;;;;;;;;;5012005;28;20446;-65
2021/10/25 06:01:01;;;;;;;117.73;107.67;;;;;;;;;;5011520;28;20825;-65
2021/10/25 06:03:32;;;;;;;176.03;162.33;;;;;;;;;;5012739;28;20450;-63
2021/10/25 06:05:59;;;;;;;515.67;483.67;;;;;;;;;;5012257;28;20532;-67
2021/10/25 06:08:28;;;;;;;332.37;312.93;;;;;;;;;;5012137;28;20786;-67
2021/10/25 06:10:56;;;;;;;225.13;211.40;;;;;;;;;;5013449;28;20458;-67
2021/10/25 06:13:27;;;;;;;162.40;151.60;;;;;;;;;;5013372;28;20441;-69
2021/10/25 06:16:03;;;;;;;150.73;141.07;;;;;;;;;;5011384;28;20473;-67
2021/10/25 06:18:30;;;;;;;145.67;136.67;;;;;;;;;;5012299;28;20920;-65
2021/10/25 06:20:57;;;;;;;138.00;128.97;;;;;;;;;;5011953;28;20454;-66
2021/10/25 06:23:24;;;;;;;142.80;133.80;;;;;;;;;;5021138;28;20460;-66
2021/10/25 06:25:52;;;;;;;154.73;144.77;;;;;;;;;;5016257;28;20453;-66
2021/10/25 06:28:23;;;;;;;177.30;166.07;;;;;;;;;;5016089;28;20507;-65
2021/10/25 06:30:55;;;;;;;200.57;188.20;;;;;;;;;;5015855;28;20434;-68
2021/10/25 06:33:23;;;;;;;252.43;238.90;;;;;;;;;;5013421;28;20940;-65
2021/10/25 06:36:00;;;;;;;267.63;252.13;;;;;;;;;;5012760;28;20469;-66
2021/10/25 06:38:31;;;;;;;313.20;295.97;;;;;;;;;;5013320;28;20449;-66
2021/10/25 06:40:59;;;;;;;343.27;324.07;;;;;;;;;;5013827;28;20979;-68
2021/10/25 06:43:27;;;;;;;352.47;333.20;;;;;;;;;;5016211;28;20457;-70
2021/10/25 06:45:55;;;;;;;365.27;345.77;;;;;;;;;;5015686;28;20493;-71
2021/10/25 06:48:22;;;;;;;325.10;307.43;;;;;;;;;;5016396;28;20940;-70
2021/10/25 06:50:49;;;;;;;345.33;326.13;;;;;;;;;;5016246;28;20960;-65
2021/10/25 06:53:17;;;;;;;344.20;324.90;;;;;;;;;;5016224;28;20476;-71
2021/10/25 06:55:45;;;;;;;370.30;349.43;;;;;;;;;;5015462;28;20474;-68
2021/10/25 06:58:12;;;;;;;344.73;324.70;;;;;;;;;;5016236;28;20453;-71
2021/10/25 07:00:41;;;;;;;308.80;292.50;;;;;;;;;;5015443;28;20941;-67
2021/10/25 07:03:08;;;;;;;399.37;373.10;;;;;;;;;;5015892;28;20472;-69
2021/10/25 07:05:37;;;;;;;323.20;306.70;;;;;;;;;;5014701;28;20489;-71
2021/10/25 07:08:04;;;;;;;321.83;304.83;;;;;;;;;;5015015;28;20984;-70
2021/10/25 07:10:31;;;;;;;334.03;316.53;;;;;;;;;;5015801;28;20449;-68
2021/10/25 07:12:59;;;;;;;336.47;319.57;;;;;;;;;;5015502;28;20453;-68
2021/10/25 07:15:26;;;;;;;310.97;294.57;;;;;;;;;;5015199;28;20527;-68
2021/10/25 07:18:00;;;;;;;321.93;305.33;;;;;;;;;;5015214;28;20580;-67
2021/10/25 07:20:45;;;;;;;326.23;309.87;;;;;;;;;;5015437;28;20841;-70
2021/10/25 07:23:33;;;;;;;322.27;306.17;;;;;;;;;;5015251;28;20457;-70
2021/10/25 08:07:25;;;;;;;235.97;224.67;;;;;;;;;;5009831;28;20488;-67
2021/10/25 08:09:54;;;;;;;223.97;213.80;;;;;;;;;;5014360;28;20453;-67
2021/10/25 08:12:24;;;;;;;202.67;192.97;;;;;;;;;;5013894;28;20457;-67
2021/10/25 08:14:55;;;;;;;169.63;162.03;;;;;;;;;;5013439;28;20992;-67
2021/10/25 08:17:24;;;;;;;150.57;143.73;;;;;;;;;;5013584;28;20485;-67
2021/10/25 08:19:52;;;;;;;97.73;93.00;;;;;;;;;;5013375;28;20469;-67
2021/10/25 08:22:21;;;;;;;151.13;144.30;;;;;;;;;;5013033;28;20457;-66
2021/10/25 08:24:51;;;;;;;213.93;204.67;;;;;;;;;;5013132;28;20489;-66
2021/10/25 08:27:20;;;;;;;225.37;215.53;;;;;;;;;;5013969;28;20438;-67
2021/10/25 08:29:48;;;;;;;226.07;216.07;;;;;;;;;;5013817;28;20547;-67
2021/10/25 08:32:30;;;;;;;168.10;160.70;;;;;;;;;;5013189;28;20458;-66
2021/10/25 08:40:25;;;;;;;92.13;87.77;;;;;;;;;;5012465;28;20948;-67
2021/10/25 08:42:52;;;;;;;94.23;89.40;;;;;;;;;;5013570;28;20446;-67
2021/10/25 08:45:28;;;;;;;73.90;70.00;;;;;;;;;;5012053;28;20540;-66
2021/10/25 08:47:56;;;;;;;62.07;58.63;;;;;;;;;;5012788;28;20459;-67
2021/10/25 08:50:24;;;;;;;50.30;47.60;;;;;;;;;;5012925;28;20516;-67
2021/10/25 08:52:52;;;;;;;40.20;37.90;;;;;;;;;;5013118;28;20457;-67
2021/10/25 08:55:20;;;;;;;47.40;44.80;;;;;;;;;;5012507;28;20473;-68
2021/10/25 08:57:47;;;;;;;50.70;47.80;;;;;;;;;;5013270;28;20450;-67
2021/10/25 09:00:16;;;;;;;51.67;48.47;;;;;;;;;;5012787;28;20457;-65
2021/10/25 09:02:44;;;;;;;47.53;44.83;;;;;;;;;;5012793;28;20469;-67
2021/10/25 09:05:12;;;;;;;43.70;41.17;;;;;;;;;;5012085;28;20478;-67
2021/10/25 09:07:49;;;;;;;44.63;42.13;;;;;;;;;;5012479;28;20449;-67
2021/10/25 09:10:22;;;;;;;39.33;36.93;;;;;;;;;;5012813;28;20437;-67
2021/10/25 09:12:53;;;;;;;36.50;34.40;;;;;;;;;;5012666;28;20822;-67
2021/10/25 09:15:20;;;;;;;37.37;35.07;;;;;;;;;;5012375;28;20457;-68
2021/10/25 09:17:47;;;;;;;36.13;33.93;;;;;;;;;;5012319;28;20460;-67
2021/10/25 09:20:16;;;;;;;33.80;31.80;;;;;;;;;;5012211;28;20461;-68
2021/10/25 09:22:43;;;;;;;31.77;29.87;;;;;;;;;;5012568;28;20541;-68
2021/10/25 09:25:10;;;;;;;31.70;30.00;;;;;;;;;;5012558;28;20493;-67
2021/10/25 09:27:41;;;;;;;31.37;29.57;;;;;;;;;;5012069;28;20596;-67
2021/10/25 09:30:10;;;;;;;30.10;28.40;;;;;;;;;;5012733;28;20441;-68
2021/10/25 09:32:39;;;;;;;29.40;27.60;;;;;;;;;;5012666;28;20452;-67
2021/10/25 09:35:15;;;;;;;28.57;27.07;;;;;;;;;;5011561;28;20830;-68
2021/10/25 09:37:47;;;;;;;29.77;28.03;;;;;;;;;;5012542;28;20434;-68
2021/10/25 09:40:22;;;;;;;30.50;28.67;;;;;;;;;;5012544;28;20462;-67
2021/10/25 09:45:51;;;;;;;27.40;25.90;;;;;;;;;;5012040;28;20583;-67
2021/10/25 09:51:04;;;;;;;30.83;29.13;;;;;;;;;;5012409;28;20477;-67
2021/10/25 09:53:32;;;;;;;24.27;22.87;;;;;;;;;;5011014;28;20945;-67
2021/10/25 09:55:59;;;;;;;24.53;22.93;;;;;;;;;;5012738;28;20457;-68
2021/10/25 09:58:33;;;;;;;25.67;24.13;;;;;;;;;;5012366;28;21318;-66
2021/10/25 10:01:01;;;;;;;25.00;23.50;;;;;;;;;;5013508;28;20904;-67
2021/10/25 10:03:29;;;;;;;27.50;25.30;;;;;;;;;;5012651;28;20452;-67
2021/10/25 10:05:59;;;;;;;25.50;23.90;;;;;;;;;;5012852;28;20490;-67
2021/10/25 10:08:27;;;;;;;25.00;23.40;;;;;;;;;;5012183;28;20474;-67
2021/10/25 10:10:55;;;;;;;25.67;23.80;;;;;;;;;;5012330;28;20549;-69
2021/10/25 10:13:26;;;;;;;26.00;24.33;;;;;;;;;;5009930;28;20454;-69
2021/10/25 10:15:57;;;;;;;25.83;24.03;;;;;;;;;;5013643;28;20485;-69
2021/10/25 10:18:25;;;;;;;25.60;24.20;;;;;;;;;;5017416;28;20452;-67
2021/10/25 10:20:55;;;;;;;25.73;23.93;;;;;;;;;;5017436;28;20952;-67
2021/10/25 10:23:22;;;;;;;25.40;23.90;;;;;;;;;;5017071;28;20838;-67
2021/10/25 10:25:51;;;;;;;26.53;24.93;;;;;;;;;;5017030;28;20536;-66
2021/10/25 10:28:20;;;;;;;26.70;25.03;;;;;;;;;;5017534;28;20795;-68
2021/10/25 10:30:51;;;;;;;26.57;24.97;;;;;;;;;;5017689;28;20453;-69
2021/10/25 10:33:19;;;;;;;28.23;26.63;;;;;;;;;;5016103;28;20450;-68
2021/10/25 10:35:48;;;;;;;27.03;25.40;;;;;;;;;;5015227;28;20468;-70
2021/10/25 10:38:15;;;;;;;26.53;25.00;;;;;;;;;;5015043;28;20813;-69
2021/10/25 10:40:44;;;;;;;26.10;24.50;;;;;;;;;;5015717;28;20524;-70
2021/10/25 10:43:22;;;;;;;27.43;25.93;;;;;;;;;;5011585;28;20453;-71
2021/10/25 10:45:57;;;;;;;25.97;24.47;;;;;;;;;;4995858;28;20560;-70
2021/10/25 10:48:29;;;;;;;26.13;24.73;;;;;;;;;;5005095;28;20456;-67
2021/10/25 10:51:01;;;;;;;26.07;24.63;;;;;;;;;;5015582;28;20452;-68
2021/10/25 10:53:32;;;;;;;26.20;24.60;;;;;;;;;;5016313;28;20462;-68
2021/10/25 10:56:03;;;;;;;25.83;24.33;;;;;;;;;;5019555;28;20441;-68
2021/10/25 10:58:49;;;;;;;27.27;25.77;;;;;;;;;;5019169;28;20517;-68
2021/10/25 11:01:16;;;;;;;26.40;24.83;;;;;;;;;;5017379;28;21028;-68
2021/10/25 11:03:45;;;;;;;26.73;25.23;;;;;;;;;;5016852;28;20446;-68
2021/10/25 11:06:16;;;;;;;25.80;24.40;;;;;;;;;;5015056;28;20481;-70
2021/10/25 11:08:45;;;;;;;25.97;24.47;;;;;;;;;;5015246;28;20453;-70
2021/10/25 11:11:13;;;;;;;26.17;24.67;;;;;;;;;;5015075;28;20450;-70
2021/10/25 11:13:43;;;;;;;26.27;24.77;;;;;;;;;;5013464;28;20461;-71
2021/10/25 11:16:13;;;;;;;26.57;25.07;;;;;;;;;;5014181;28;20541;-70
2021/10/25 11:18:41;;;;;;;26.40;24.70;;;;;;;;;;5007406;28;20481;-70
2021/10/25 11:21:12;;;;;;;26.63;25.13;;;;;;;;;;5015397;28;20936;-70
2021/10/25 11:23:41;;;;;;;25.50;24.10;;;;;;;;;;5015139;28;20820;-70
2021/10/25 11:26:11;;;;;;;27.13;25.53;;;;;;;;;;5015086;28;20492;-68
2021/10/25 11:28:38;;;;;;;27.13;25.63;;;;;;;;;;5014229;28;20445;-68
2021/10/25 11:31:06;;;;;;;27.30;25.60;;;;;;;;;;5016468;28;20500;-68
2021/10/25 11:33:33;;;;;;;27.90;26.30;;;;;;;;;;5012832;28;20449;-68
2021/10/25 11:36:01;;;;;;;27.60;26.00;;;;;;;;;;5014127;28;20466;-68
2021/10/25 11:38:32;;;;;;;26.33;24.93;;;;;;;;;;5015692;28;20456;-68
2021/10/25 11:41:04;;;;;;;25.97;24.47;;;;;;;;;;5015031;28;20939;-68
2021/10/25 11:43:31;;;;;;;27.03;25.53;;;;;;;;;;5015326;28;20933;-68
2021/10/25 11:45:58;;;;;;;25.57;24.00;;;;;;;;;;5014893;28;20500;-68
2021/10/25 11:48:29;;;;;;;26.10;24.60;;;;;;;;;;5015983;28;20457;-68
2021/10/25 11:50:59;;;;;;;26.47;24.90;;;;;;;;;;5016273;28;20812;-68
2021/10/25 11:53:30;;;;;;;26.13;24.63;;;;;;;;;;5015527;28;20937;-68
2021/10/25 11:55:57;;;;;;;26.37;24.60;;;;;;;;;;5014724;28;20480;-68
2021/10/25 11:58:27;;;;;;;25.93;24.40;;;;;;;;;;5014945;28;20833;-68
2021/10/25 12:00:55;;;;;;;26.07;24.60;;;;;;;;;;5015309;28;20543;-68
2021/10/25 12:03:24;;;;;;;26.57;25.07;;;;;;;;;;5033420;22;20504;-68
2021/10/25 12:05:51;;;;;;;30.90;29.20;;;;;;;;;;5009673;28;20992;-66
2021/10/25 12:08:19;;;;;;;27.67;25.97;;;;;;;;;;5013401;28;20453;-68
2021/10/25 12:10:49;;;;;;;27.70;26.20;;;;;;;;;;5010995;28;20446;-68
2021/10/25 12:13:16;;;;;;;26.27;24.77;;;;;;;;;;4999856;28;20883;-68
2021/10/25 12:15:49;;;;;;;25.30;23.90;;;;;;;;;;5012221;28;20449;-67
2021/10/25 12:18:19;;;;;;;28.00;26.40;;;;;;;;;;5012706;28;20446;-66
2021/10/25 12:20:47;;;;;;;27.60;26.10;;;;;;;;;;5012110;28;20454;-67
2021/10/25 12:23:15;;;;;;;27.27;25.87;;;;;;;;;;4994003;28;20489;-68
2021/10/25 12:25:42;;;;;;;28.20;26.70;;;;;;;;;;4993073;28;20993;-67
2021/10/25 12:28:11;;;;;;;27.73;26.13;;;;;;;;;;5000321;28;20458;-67
2021/10/25 12:30:38;;;;;;;39.20;36.90;;;;;;;;;;5013188;28;20936;-65
2021/10/25 12:33:05;;;;;;;130.03;124.13;;;;;;;;;;5012023;28;20481;-65
2021/10/25 12:35:33;;;;;;;183.83;175.60;;;;;;;;;;4998747;28;20521;-66
2021/10/25 12:38:01;;;;;;;210.07;200.07;;;;;;;;;;4993613;28;20514;-66
2021/10/25 12:40:28;;;;;;;242.80;231.20;;;;;;;;;;5006774;28;20971;-66
2021/10/25 12:43:01;;;;;;;246.67;234.20;;;;;;;;;;5012877;28;20473;-66
2021/10/25 12:45:31;;;;;;;244.20;231.93;;;;;;;;;;5012156;28;20442;-65
2021/10/25 12:48:00;;;;;;;258.23;244.83;;;;;;;;;;5012951;28;20445;-66
2021/10/25 12:50:31;;;;;;;279.80;265.03;;;;;;;;;;5012593;28;20512;-66
2021/10/25 12:52:58;;;;;;;283.33;267.43;;;;;;;;;;5013205;28;20472;-66
2021/10/25 12:55:26;;;;;;;288.90;273.13;;;;;;;;;;5011600;28;20460;-66
2021/10/25 12:57:55;;;;;;;305.27;288.57;;;;;;;;;;5012902;28;20529;-66
2021/10/25 13:00:24;;;;;;;308.93;292.17;;;;;;;;;;5011455;28;20454;-66
2021/10/25 13:02:54;;;;;;;315.73;298.27;;;;;;;;;;5012629;28;20902;-66
2021/10/25 13:05:22;;;;;;;343.40;324.67;;;;;;;;;;5011482;28;20450;-66
2021/10/25 13:07:51;;;;;;;337.70;319.00;;;;;;;;;;5002050;28;20458;-66
2021/10/25 13:10:19;;;;;;;336.73;318.77;;;;;;;;;;5011984;28;20452;-65
2021/10/25 13:12:46;;;;;;;348.50;329.90;;;;;;;;;;5012699;28;20474;-65
2021/10/25 13:15:14;;;;;;;363.53;342.80;;;;;;;;;;5011607;28;20454;-67
2021/10/25 13:17:42;;;;;;;372.87;350.67;;;;;;;;;;5012637;28;20445;-66
2021/10/25 13:20:13;;;;;;;381.50;358.43;;;;;;;;;;5009695;28;20991;-66
2021/10/25 13:22:40;;;;;;;374.53;352.93;;;;;;;;;;5012683;28;20528;-66
2021/10/25 13:25:07;;;;;;;389.67;366.07;;;;;;;;;;5005068;28;20963;-66
2021/10/25 13:27:35;;;;;;;394.07;370.53;;;;;;;;;;4998130;28;20593;-65
2021/10/25 13:30:03;;;;;;;395.70;371.67;;;;;;;;;;4993057;28;20450;-66
2021/10/25 13:32:30;;;;;;;406.63;381.53;;;;;;;;;;4992848;28;20505;-66
2021/10/25 13:34:57;;;;;;;396.10;371.80;;;;;;;;;;5004335;28;20453;-66
2021/10/25 13:37:26;;;;;;;366.13;348.23;;;;;;;;;;5012298;28;20500;-66
2021/10/25 13:39:53;;;;;;;345.67;328.33;;;;;;;;;;5011192;28;20453;-65
2021/10/25 13:42:20;;;;;;;357.00;337.90;;;;;;;;;;5010787;28;20450;-67
2021/10/25 13:44:47;;;;;;;405.07;380.17;;;;;;;;;;5002464;28;20834;-66
2021/10/25 13:47:14;;;;;;;408.90;383.70;;;;;;;;;;4992404;28;20481;-66
2021/10/25 13:49:41;;;;;;;415.17;388.37;;;;;;;;;;4993249;28;21008;-67
2021/10/25 13:52:09;;;;;;;407.47;382.10;;;;;;;;;;4993153;28;20450;-66
2021/10/25 13:54:38;;;;;;;410.03;386.27;;;;;;;;;;4992819;28;20470;-67
2021/10/25 13:57:08;;;;;;;409.10;385.03;;;;;;;;;;4993441;28;20962;-66
2021/10/25 13:59:36;;;;;;;430.00;403.20;;;;;;;;;;5005509;28;20466;-66
2021/10/25 14:02:06;;;;;;;420.93;394.00;;;;;;;;;;5009500;28;20469;-66
2021/10/25 14:04:38;;;;;;;429.07;401.67;;;;;;;;;;5001930;28;20499;-66
2021/10/25 14:07:07;;;;;;;430.23;402.87;;;;;;;;;;5009814;28;20521;-67
2021/10/25 14:09:35;;;;;;;377.60;357.67;;;;;;;;;;4992444;28;20458;-66
2021/10/25 14:12:04;;;;;;;403.40;379.97;;;;;;;;;;4993256;28;20461;-66
2021/10/25 14:14:32;;;;;;;368.37;345.97;;;;;;;;;;5006793;28;20489;-64
2021/10/25 14:16:59;;;;;;;381.77;358.57;;;;;;;;;;5004636;28;20473;-66
2021/10/25 14:19:28;;;;;;;363.00;341.27;;;;;;;;;;5009720;28;20469;-66
2021/10/25 14:21:55;;;;;;;384.07;360.70;;;;;;;;;;5009973;28;20472;-66
2021/10/25 14:24:23;;;;;;;381.23;357.87;;;;;;;;;;5008398;28;20548;-65
2021/10/25 14:26:51;;;;;;;385.57;363.23;;;;;;;;;;5003196;28;20993;-67
2021/10/25 14:29:19;;;;;;;381.23;357.30;;;;;;;;;;4991855;28;20817;-67
2021/10/25 14:31:47;;;;;;;385.10;359.60;;;;;;;;;;5012001;28;20467;-67
2021/10/25 14:34:15;;;;;;;377.20;358.00;;;;;;;;;;5010592;28;20556;-67
2021/10/25 14:36:43;;;;;;;430.23;403.77;;;;;;;;;;5011723;28;20441;-66
2021/10/25 14:39:15;;;;;;;437.93;409.13;;;;;;;;;;5012515;28;20449;-68
2021/10/25 14:44:38;;;;;;;386.70;366.03;;;;;;;;;;5009980;28;20461;-67
2021/10/25 14:55:36;;;;;;;389.43;369.53;;;;;;;;;;4991551;28;20775;-67
2021/10/25 14:58:04;;;;;;;373.63;353.23;;;;;;;;;;4991747;28;20906;-67
2021/10/25 15:00:32;;;;;;;368.10;347.80;;;;;;;;;;4998830;28;20925;-66
2021/10/25 15:02:59;;;;;;;362.77;342.30;;;;;;;;;;5014389;28;20488;-67
2021/10/25 15:05:26;;;;;;;379.03;357.10;;;;;;;;;;5009226;28;20465;-68
2021/10/25 15:07:53;;;;;;;369.07;347.53;;;;;;;;;;5014637;28;20481;-68
2021/10/25 15:10:21;;;;;;;364.30;344.53;;;;;;;;;;5012292;28;20529;-68
2021/10/25 15:12:48;;;;;;;370.43;350.13;;;;;;;;;;5005374;28;20512;-68
2021/10/25 15:15:15;;;;;;;374.27;353.50;;;;;;;;;;5014063;28;20461;-67
2021/10/25 15:17:46;;;;;;;361.30;341.03;;;;;;;;;;5009561;28;20458;-68
2021/10/25 15:20:13;;;;;;;380.77;359.10;;;;;;;;;;5002908;28;20451;-66
2021/10/25 15:22:41;;;;;;;378.17;357.80;;;;;;;;;;4995213;28;20497;-67
2021/10/25 15:25:09;;;;;;;389.97;368.77;;;;;;;;;;5014012;28;20457;-67
2021/10/25 15:27:39;;;;;;;392.57;370.83;;;;;;;;;;5013294;28;20854;-67
2021/10/25 15:30:07;;;;;;;392.23;370.10;;;;;;;;;;5013365;28;20453;-67
2021/10/25 15:32:35;;;;;;;384.87;362.93;;;;;;;;;;5013294;28;20488;-67